createdAt,value
2023-03-18T00:00:35.448Z,57.48
2023-03-18T00:03:03.237Z,57.74
2023-03-18T00:05:31.337Z,58.96
2023-03-18T00:07:59.263Z,57.36
2023-03-18T00:10:26.755Z,58.03
2023-03-18T00:12:54.800Z,59.04
2023-03-18T00:15:22.293Z,58.45
2023-03-18T00:17:49.786Z,59.55
2023-03-18T00:20:18.622Z,58.65
2023-03-18T00:22:46.976Z,57.98
2023-03-18T00:25:15.546Z,58.91
2023-03-18T00:27:43.058Z,59.65
2023-03-18T00:30:12.657Z,58.74
2023-03-18T00:32:41.632Z,59.73
2023-03-18T00:35:09.658Z,58.32
2023-03-18T00:37:37.207Z,59.08
2023-03-18T00:40:08.295Z,59.34
2023-03-18T00:42:39.509Z,57.61
2023-03-18T00:45:10.491Z,57.42
2023-03-18T00:47:38.741Z,58.89
2023-03-18T00:50:08.551Z,57.68
2023-03-18T00:52:36.587Z,58.44
2023-03-18T00:55:05.201Z,59.08
2023-03-18T00:57:33.327Z,57.96
2023-03-18T01:00:01.407Z,58.66
2023-03-18T01:02:29.908Z,58.99
2023-03-18T01:04:58.138Z,59.21
2023-03-18T01:07:25.714Z,59.31
2023-03-18T01:09:54.860Z,58.13
2023-03-18T01:12:25.774Z,57.58
2023-03-18T01:14:53.296Z,58.05
2023-03-18T01:17:21.079Z,57.83
2023-03-18T01:19:48.966Z,58.42
2023-03-18T01:22:16.598Z,59.21
2023-03-18T01:24:48.280Z,58.30
2023-03-18T01:27:18.574Z,57.66
2023-03-18T01:29:47.970Z,57.47
2023-03-18T01:32:22.197Z,58.94
2023-03-18T01:34:49.911Z,58.73
2023-03-18T01:37:17.306Z,57.35
2023-03-18T01:39:49.455Z,57.13
2023-03-18T01:42:22.816Z,57.92
2023-03-18T01:44:50.943Z,58.22
2023-03-18T01:47:18.803Z,58.91
2023-03-18T01:49:54.134Z,58.96
2023-03-18T01:52:29.450Z,58.65
2023-03-18T01:55:06.777Z,57.92
2023-03-18T01:57:35.890Z,58.77
2023-03-18T02:00:05.664Z,59.67
2023-03-18T02:02:43.462Z,58.49
2023-03-18T02:05:15.276Z,57.83
2023-03-18T02:07:44.874Z,59.31
2023-03-18T02:10:16.700Z,59.33
2023-03-18T02:12:51.105Z,58.45
2023-03-18T02:15:28.761Z,58.99
2023-03-18T02:18:03.167Z,60.50
2023-03-18T02:20:39.685Z,61.35
2023-03-18T02:23:31.865Z,59.51
2023-03-18T02:26:13.683Z,60.73
2023-03-18T02:28:42.447Z,60.23
2023-03-18T02:31:13.295Z,61.24
2023-03-18T02:33:43.349Z,61.87
2023-03-18T02:36:21.837Z,60.94
2023-03-18T02:38:50.185Z,62.92
2023-03-18T02:41:27.285Z,61.32
2023-03-18T02:43:55.144Z,61.96
2023-03-18T02:46:57.883Z,61.14
2023-03-18T02:49:27.832Z,61.08
2023-03-18T02:51:55.561Z,60.50
2023-03-18T02:54:29.326Z,58.21
2023-03-18T02:56:57.331Z,58.85
2023-03-18T02:59:25.738Z,58.16
2023-03-18T03:01:55.070Z,58.46
2023-03-18T03:04:25.071Z,57.92
2023-03-18T03:06:55.124Z,59.33
2023-03-18T03:09:35.460Z,58.70
2023-03-18T03:12:03.254Z,59.12
2023-03-18T03:14:31.269Z,58.59
2023-03-18T03:17:01.989Z,58.99
2023-03-18T03:19:30.229Z,59.92
2023-03-18T03:21:57.647Z,59.21
2023-03-18T03:24:26.006Z,59.75
2023-03-18T03:26:53.768Z,60.39
2023-03-18T03:29:21.867Z,59.64
2023-03-18T03:31:50.483Z,60.27
2023-03-18T03:34:18.323Z,60.50
2023-03-18T03:36:45.911Z,60.47
2023-03-18T03:39:13.497Z,61.48
2023-03-18T03:41:41.040Z,62.05
2023-03-18T03:44:08.573Z,64.19
2023-03-18T03:46:36.676Z,66.27
2023-03-18T03:49:06.795Z,67.18
2023-03-18T03:51:34.502Z,65.02
2023-03-18T03:54:02.019Z,66.55
2023-03-18T03:56:31.629Z,66.74
2023-03-18T03:59:00.322Z,65.88
2023-03-18T04:01:47.324Z,65.43
2023-03-18T04:04:15.645Z,65.96
2023-03-18T04:06:43.796Z,66.67
2023-03-18T04:09:11.704Z,67.69
2023-03-18T04:11:39.176Z,68.62
2023-03-18T04:14:08.280Z,68.30
2023-03-18T04:16:35.886Z,68.05
2023-03-18T04:19:03.396Z,67.59
2023-03-18T04:21:31.046Z,66.84
2023-03-18T04:23:58.896Z,67.57
2023-03-18T04:26:28.602Z,69.15
2023-03-18T04:28:59.708Z,67.92
2023-03-18T04:31:27.534Z,70.54
2023-03-18T04:33:55.622Z,69.02
2023-03-18T04:36:24.395Z,68.91
2023-03-18T04:38:52.085Z,67.80
2023-03-18T04:41:19.667Z,67.91
2023-03-18T04:43:47.851Z,68.27
2023-03-18T04:46:15.956Z,68.79
2023-03-18T04:48:45.984Z,68.00
2023-03-18T04:51:13.784Z,68.15
2023-03-18T04:53:42.232Z,66.43
2023-03-18T04:56:10.923Z,67.36
2023-03-18T04:58:46.150Z,67.76
2023-03-18T05:01:19.283Z,67.40
2023-03-18T05:03:47.522Z,66.52
2023-03-18T05:06:23.124Z,67.26
2023-03-18T05:08:57.401Z,66.64
2023-03-18T05:11:28.334Z,67.09
2023-03-18T05:13:58.215Z,67.48
2023-03-18T05:16:25.959Z,68.23
2023-03-18T05:18:54.274Z,67.15
2023-03-18T05:21:22.095Z,67.78
2023-03-18T05:23:49.812Z,66.64
2023-03-18T05:26:17.608Z,66.80
2023-03-18T05:28:47.309Z,67.60
2023-03-18T05:31:38.422Z,67.49
2023-03-18T05:34:07.336Z,67.86
2023-03-18T05:36:36.786Z,66.56
2023-03-18T05:39:08.099Z,67.18
2023-03-18T05:41:35.596Z,68.00
2023-03-18T05:44:03.855Z,66.43
2023-03-18T05:46:35.994Z,65.54
2023-03-18T05:49:10.375Z,66.33
2023-03-18T05:51:48.938Z,67.74
2023-03-18T05:54:28.050Z,70.19
2023-03-18T05:56:56.642Z,70.68
2023-03-18T05:59:25.287Z,71.35
2023-03-18T06:01:58.474Z,67.88
2023-03-18T06:04:27.885Z,70.02
2023-03-18T06:06:55.394Z,67.81
2023-03-18T06:09:23.919Z,68.85
2023-03-18T06:11:52.700Z,68.73
2023-03-18T06:14:20.356Z,67.34
2023-03-18T06:16:48.251Z,66.35
2023-03-18T06:19:15.810Z,68.75
2023-03-18T06:21:43.401Z,68.12
2023-03-18T06:24:57.707Z,68.37
2023-03-18T06:27:25.466Z,67.00
2023-03-18T06:29:56.795Z,66.44
2023-03-18T06:32:24.372Z,65.41
2023-03-18T06:34:52.708Z,61.35
2023-03-18T06:37:21.094Z,59.89
2023-03-18T06:39:49.712Z,58.47
2023-03-18T06:42:18.090Z,58.31
2023-03-18T06:44:54.882Z,58.36
2023-03-18T06:47:29.922Z,59.06
2023-03-18T06:49:58.930Z,60.22
2023-03-18T06:52:38.460Z,59.78
2023-03-18T06:55:11.518Z,57.62
2023-03-18T06:57:41.685Z,57.93
2023-03-18T07:00:11.063Z,57.49
2023-03-18T07:02:39.774Z,57.02
2023-03-18T07:05:12.780Z,57.69
2023-03-18T07:07:42.218Z,57.79
2023-03-18T07:10:21.294Z,57.83
2023-03-18T07:12:50.601Z,58.35
2023-03-18T07:15:22.989Z,58.26
2023-03-18T07:17:53.742Z,56.99
2023-03-18T07:20:22.721Z,57.01
2023-03-18T07:22:50.477Z,56.58
2023-03-18T07:25:18.279Z,55.79
2023-03-18T07:27:45.830Z,55.37
2023-03-18T07:30:13.881Z,54.94
2023-03-18T07:32:43.053Z,54.58
2023-03-18T07:35:14.071Z,53.92
2023-03-18T07:37:42.258Z,51.70
2023-03-18T07:40:11.902Z,51.75
2023-03-18T07:42:39.359Z,51.87
2023-03-18T07:45:07.971Z,51.23
2023-03-18T07:47:35.511Z,50.65
2023-03-18T07:50:03.020Z,50.53
2023-03-18T07:52:31.163Z,49.29
2023-03-18T07:54:58.621Z,48.29
2023-03-18T07:57:26.291Z,48.04
2023-03-18T07:59:53.719Z,48.07
2023-03-18T08:02:22.026Z,48.13
2023-03-18T08:04:49.558Z,46.72
2023-03-18T08:07:18.142Z,48.55
2023-03-18T08:09:45.652Z,49.03
2023-03-18T08:12:13.442Z,49.49
2023-03-18T08:14:41.118Z,50.09
2023-03-18T08:17:09.060Z,49.56
2023-03-18T08:19:37.459Z,50.29
2023-03-18T08:22:05.069Z,50.58
2023-03-18T08:24:32.899Z,48.80
2023-03-18T08:27:00.383Z,50.00
2023-03-18T08:29:27.791Z,49.49
2023-03-18T08:31:55.314Z,50.45
2023-03-18T08:34:23.649Z,50.64
2023-03-18T08:36:51.488Z,50.23
2023-03-18T08:39:19.062Z,49.03
2023-03-18T08:41:46.771Z,48.24
2023-03-18T08:44:14.196Z,48.67
2023-03-18T08:46:41.713Z,47.51
2023-03-18T08:49:10.543Z,48.53
2023-03-18T08:51:38.707Z,48.55
2023-03-18T08:54:08.318Z,47.44
2023-03-18T08:56:35.950Z,46.84
2023-03-18T08:59:03.500Z,47.17
2023-03-18T09:01:31.889Z,46.32
2023-03-18T09:03:59.685Z,46.45
2023-03-18T09:06:28.944Z,47.04
2023-03-18T09:08:56.628Z,46.38
2023-03-18T09:11:25.074Z,46.57
2023-03-18T09:13:52.458Z,47.05
2023-03-18T09:16:19.971Z,45.68
2023-03-18T09:18:48.864Z,45.94
2023-03-18T09:21:17.390Z,45.33
2023-03-18T09:23:46.137Z,45.46
2023-03-18T09:26:13.688Z,45.52
2023-03-18T09:28:41.152Z,46.78
2023-03-18T09:31:08.654Z,45.82
2023-03-18T09:33:37.239Z,45.79
2023-03-18T09:36:05.532Z,45.97
2023-03-18T09:38:33.320Z,45.85
2023-03-18T09:41:12.682Z,45.81
2023-03-18T09:44:10.191Z,45.80
2023-03-18T09:46:59.341Z,44.91
2023-03-18T09:49:35.519Z,45.43
2023-03-18T09:52:20.621Z,46.02
2023-03-18T09:55:03.792Z,45.91
2023-03-18T09:57:38.739Z,46.13
2023-03-18T10:00:09.314Z,44.90
2023-03-18T10:03:03.274Z,45.53
2023-03-18T10:05:43.286Z,44.65
2023-03-18T10:08:41.659Z,45.33
2023-03-18T10:11:22.160Z,44.41
2023-03-18T10:14:37.462Z,44.81
2023-03-18T10:17:26.070Z,44.14
2023-03-18T10:19:58.647Z,45.18
2023-03-18T10:22:41.005Z,44.30
2023-03-18T10:25:14.962Z,44.88
2023-03-18T10:28:10.050Z,45.50
2023-03-18T10:30:59.176Z,46.12
2023-03-18T10:33:46.398Z,46.12
2023-03-18T10:36:46.014Z,46.76
2023-03-18T10:39:17.041Z,45.72
2023-03-18T10:41:52.458Z,47.32
2023-03-18T10:44:26.503Z,46.59
2023-03-18T10:47:10.330Z,48.63
2023-03-18T10:49:42.954Z,47.01
2023-03-18T10:52:49.522Z,47.27
2023-03-18T10:55:22.774Z,47.38
2023-03-18T10:57:50.928Z,46.30
2023-03-18T11:00:27.103Z,47.92
2023-03-18T11:02:57.309Z,47.77
2023-03-18T11:05:33.999Z,47.72
2023-03-18T11:08:09.193Z,48.33
2023-03-18T11:10:46.222Z,47.07
2023-03-18T11:13:18.073Z,49.91
2023-03-18T11:15:50.881Z,47.98
2023-03-18T11:18:23.295Z,49.03
2023-03-18T11:21:01.254Z,48.33
2023-03-18T11:24:08.289Z,48.20
2023-03-18T11:26:47.839Z,50.02
2023-03-18T11:29:24.260Z,50.58
2023-03-18T11:31:58.528Z,50.58
2023-03-18T11:34:27.902Z,50.82
2023-03-18T11:36:59.086Z,52.19
2023-03-18T11:39:31.042Z,53.01
2023-03-18T11:42:00.778Z,51.83
2023-03-18T11:44:31.444Z,52.91
2023-03-18T11:47:19.850Z,51.91
2023-03-18T11:49:47.410Z,53.10
2023-03-18T11:52:37.789Z,52.08
2023-03-18T11:55:34.358Z,53.14
2023-03-18T11:58:37.264Z,54.52
2023-03-18T12:01:22.290Z,55.72
2023-03-18T12:04:37.338Z,53.05
2023-03-18T12:07:15.498Z,51.99
2023-03-18T12:09:57.063Z,51.39
2023-03-18T12:12:41.759Z,51.39
2023-03-18T12:15:09.934Z,52.28
2023-03-18T12:17:53.872Z,51.34
2023-03-18T12:20:50.155Z,51.01
2023-03-18T12:23:37.730Z,51.01
2023-03-18T12:26:23.900Z,51.67
2023-03-18T12:29:09.804Z,53.46
2023-03-18T12:32:03.093Z,50.74
2023-03-18T12:34:58.553Z,49.99
2023-03-18T12:37:52.684Z,49.20
2023-03-18T12:40:39.085Z,50.89
2023-03-18T12:43:25.120Z,52.53
2023-03-18T12:46:00.027Z,52.64
2023-03-18T12:48:44.170Z,51.84
2023-03-18T12:51:25.034Z,51.53
2023-03-18T12:53:57.452Z,51.82
2023-03-18T12:56:30.220Z,52.45
2023-03-18T12:59:09.477Z,52.12
2023-03-18T13:01:59.755Z,53.79
2023-03-18T13:04:32.801Z,51.54
2023-03-18T13:07:16.067Z,55.56
2023-03-18T13:09:49.511Z,53.47
2023-03-18T13:12:38.725Z,50.70
2023-03-18T13:15:17.867Z,51.51
2023-03-18T13:17:49.258Z,53.46
2023-03-18T13:20:22.830Z,53.38
2023-03-18T13:23:16.072Z,51.17
2023-03-18T13:25:58.616Z,53.70
2023-03-18T13:28:53.938Z,54.02
2023-03-18T13:31:33.416Z,53.17
2023-03-18T13:34:35.879Z,53.42
2023-03-18T13:37:29.408Z,55.52
2023-03-18T13:40:19.341Z,53.12
2023-03-18T13:42:49.637Z,54.95
2023-03-18T13:45:33.874Z,55.47
2023-03-18T13:48:07.649Z,56.25
2023-03-18T13:50:46.828Z,57.09
2023-03-18T13:53:40.596Z,56.70
2023-03-18T13:56:42.778Z,55.69
2023-03-18T13:59:35.023Z,56.42
2023-03-18T14:02:31.256Z,56.24
2023-03-18T14:05:00.089Z,57.20
2023-03-18T14:07:28.746Z,56.39
2023-03-18T14:10:18.435Z,57.25
2023-03-18T14:12:50.374Z,57.84
2023-03-18T14:15:26.778Z,59.40
2023-03-18T14:17:58.617Z,58.50
2023-03-18T14:20:37.035Z,58.91
2023-03-18T14:23:33.555Z,58.48
2023-03-18T14:26:25.291Z,59.50
2023-03-18T14:29:09.443Z,59.38
2023-03-18T14:31:40.142Z,59.17
2023-03-18T14:34:14.930Z,60.02
2023-03-18T14:36:54.345Z,59.78
2023-03-18T14:39:38.262Z,59.68
2023-03-18T14:42:28.984Z,60.66
2023-03-18T14:45:04.678Z,60.30
2023-03-18T14:47:52.829Z,59.68
2023-03-18T14:50:43.203Z,61.81
2023-03-18T14:53:20.884Z,61.31
2023-03-18T14:55:51.982Z,61.28
2023-03-18T14:58:21.479Z,61.51
2023-03-18T15:00:52.906Z,61.77
2023-03-18T15:03:26.837Z,62.91
2023-03-18T15:05:59.008Z,61.64
2023-03-18T15:08:46.295Z,61.68
2023-03-18T15:11:16.762Z,61.69
2023-03-18T15:13:45.111Z,60.89
2023-03-18T15:16:20.511Z,59.71
2023-03-18T15:18:53.210Z,59.05
2023-03-18T15:21:25.909Z,59.06
2023-03-18T15:23:56.897Z,60.28
2023-03-18T15:26:29.671Z,61.19
2023-03-18T15:29:00.358Z,60.80
2023-03-18T15:31:30.604Z,63.16
2023-03-18T15:34:21.724Z,61.09
2023-03-18T15:36:55.614Z,61.41
2023-03-18T15:39:35.365Z,61.36
2023-03-18T15:42:12.933Z,62.41
2023-03-18T15:44:42.982Z,63.57
2023-03-18T15:47:14.702Z,63.46
2023-03-18T15:49:56.290Z,63.08
2023-03-18T15:52:26.994Z,63.11
2023-03-18T15:54:54.566Z,63.83
2023-03-18T15:57:36.674Z,64.76
2023-03-18T16:00:11.050Z,65.70
2023-03-18T16:02:42.018Z,65.52
2023-03-18T16:05:15.566Z,65.01
2023-03-18T16:07:43.314Z,64.87
2023-03-18T16:10:11.937Z,66.63
2023-03-18T16:12:41.042Z,67.97
2023-03-18T16:15:17.059Z,67.85
2023-03-18T16:17:45.743Z,68.64
2023-03-18T16:20:20.385Z,68.55
2023-03-18T16:22:47.911Z,69.80
2023-03-18T16:25:15.744Z,70.44
2023-03-18T16:27:48.860Z,70.71
2023-03-18T16:30:19.501Z,70.47
2023-03-18T16:32:47.190Z,72.34
2023-03-18T16:35:19.592Z,71.54
2023-03-18T16:37:48.662Z,73.02
2023-03-18T16:40:18.238Z,72.77
2023-03-18T16:42:48.090Z,73.23
2023-03-18T16:45:30.402Z,74.67
2023-03-18T16:48:03.993Z,75.67
2023-03-18T16:50:36.655Z,75.39
2023-03-18T16:53:18.077Z,75.48
2023-03-18T16:55:48.290Z,75.10
2023-03-18T16:58:21.043Z,75.36
2023-03-18T17:00:49.693Z,76.24
2023-03-18T17:03:18.339Z,75.72
2023-03-18T17:05:50.382Z,76.59
2023-03-18T17:08:19.866Z,77.43
2023-03-18T17:10:50.825Z,77.24
2023-03-18T17:13:24.267Z,79.25
2023-03-18T17:15:52.447Z,79.98
2023-03-18T17:18:22.777Z,80.53
2023-03-18T17:20:50.760Z,80.06
2023-03-18T17:23:21.133Z,81.96
2023-03-18T17:25:52.441Z,82.30
2023-03-18T17:28:30.350Z,81.81
2023-03-18T17:30:58.377Z,81.89
2023-03-18T17:33:31.165Z,81.40
2023-03-18T17:36:01.745Z,80.34
2023-03-18T17:38:31.224Z,81.97
2023-03-18T17:40:59.729Z,81.69
2023-03-18T17:43:37.386Z,82.48
2023-03-18T17:46:06.357Z,83.21
2023-03-18T17:48:36.003Z,83.43
2023-03-18T17:51:19.174Z,83.49
2023-03-18T17:53:49.588Z,84.20
2023-03-18T17:56:19.405Z,83.08
2023-03-18T17:58:49.508Z,83.07
2023-03-18T18:01:26.641Z,83.33
2023-03-18T18:03:56.148Z,83.68
2023-03-18T18:06:27.283Z,83.39
2023-03-18T18:08:59.010Z,84.04
2023-03-18T18:11:32.389Z,84.03
2023-03-18T18:14:23.663Z,84.31
2023-03-18T18:16:53.725Z,85.54
2023-03-18T18:19:22.914Z,86.40
2023-03-18T18:21:51.454Z,86.37
2023-03-18T18:24:28.233Z,86.87
2023-03-18T18:26:56.609Z,87.16
2023-03-18T18:29:28.256Z,88.78
2023-03-18T18:31:56.031Z,89.37
2023-03-18T18:34:23.428Z,89.26
2023-03-18T18:36:51.150Z,88.62
2023-03-18T18:39:19.361Z,87.95
2023-03-18T18:41:47.535Z,90.12
2023-03-18T18:44:15.082Z,92.28
2023-03-18T18:46:42.627Z,93.24
2023-03-18T18:49:22.949Z,93.21
2023-03-18T18:51:53.535Z,91.54
2023-03-18T18:54:22.849Z,91.59
2023-03-18T18:56:50.503Z,93.06
2023-03-18T18:59:28.846Z,93.46
2023-03-18T19:01:56.971Z,95.50
2023-03-18T19:04:24.603Z,94.07
2023-03-18T19:06:52.905Z,92.69
2023-03-18T19:09:23.844Z,92.78
2023-03-18T19:11:52.503Z,92.31
2023-03-18T19:14:24.661Z,92.50
2023-03-18T19:16:54.005Z,93.56
2023-03-18T19:19:26.452Z,95.03
2023-03-18T19:21:53.983Z,95.47
2023-03-18T19:24:30.642Z,96.11
2023-03-18T19:27:03.148Z,97.45
2023-03-18T19:29:32.805Z,97.90
2023-03-18T19:32:01.554Z,99.34
2023-03-18T19:34:30.099Z,99.51
2023-03-18T19:36:58.094Z,100.00
2023-03-18T19:39:27.827Z,100.00
2023-03-18T19:41:55.794Z,99.78
2023-03-18T19:44:26.328Z,98.19
2023-03-18T19:46:56.469Z,99.27
2023-03-18T19:49:28.560Z,99.59
2023-03-18T19:51:56.491Z,100.00
2023-03-18T19:54:35.676Z,99.24
2023-03-18T19:57:06.940Z,99.21
2023-03-18T19:59:39.090Z,99.49
2023-03-18T20:02:22.040Z,99.06
2023-03-18T20:04:51.913Z,99.23
2023-03-18T20:07:22.307Z,97.27
2023-03-18T20:09:50.705Z,97.22
2023-03-18T20:12:36.811Z,95.89
2023-03-18T20:15:13.198Z,95.16
2023-03-18T20:17:43.363Z,95.49
2023-03-18T20:20:26.222Z,96.41
2023-03-18T20:23:03.576Z,96.35
2023-03-18T20:25:41.305Z,94.30
2023-03-18T20:28:15.238Z,94.39
2023-03-18T20:30:43.267Z,95.85
2023-03-18T20:33:10.912Z,97.15
2023-03-18T20:35:42.056Z,95.74
2023-03-18T20:38:28.572Z,94.33
2023-03-18T20:40:56.743Z,92.50
2023-03-18T20:43:26.709Z,93.40
2023-03-18T20:45:56.387Z,93.15
2023-03-18T20:48:24.175Z,93.35
2023-03-18T20:50:52.788Z,91.23
2023-03-18T20:53:23.898Z,92.46
2023-03-18T20:55:51.455Z,93.04
2023-03-18T20:58:28.289Z,93.76
2023-03-18T21:00:56.082Z,92.53
2023-03-18T21:03:29.645Z,91.82
2023-03-18T21:05:59.491Z,92.37
2023-03-18T21:08:28.042Z,91.43
2023-03-18T21:10:58.092Z,92.28
2023-03-18T21:13:39.008Z,92.17
2023-03-18T21:16:13.165Z,91.78
2023-03-18T21:18:45.607Z,93.32
2023-03-18T21:21:31.950Z,93.98
2023-03-18T21:23:59.906Z,94.22
2023-03-18T21:26:30.124Z,95.10
2023-03-18T21:28:57.718Z,96.75
2023-03-18T21:31:31.251Z,96.37
2023-03-18T21:33:59.733Z,93.82
2023-03-18T21:36:27.209Z,92.73
2023-03-18T21:38:54.723Z,94.03
2023-03-18T21:41:27.445Z,91.54
2023-03-18T21:43:55.382Z,89.72
2023-03-18T21:46:29.864Z,88.90
2023-03-18T21:48:57.440Z,91.06
2023-03-18T21:51:41.144Z,91.07
2023-03-18T21:54:26.765Z,88.94
2023-03-18T21:56:54.296Z,88.92
2023-03-18T21:59:21.809Z,89.28
2023-03-18T22:01:49.487Z,86.95
2023-03-18T22:04:17.024Z,86.67
2023-03-18T22:06:44.566Z,86.51
2023-03-18T22:09:12.056Z,87.71
2023-03-18T22:11:39.526Z,87.99
2023-03-18T22:14:06.984Z,86.91
2023-03-18T22:16:34.490Z,84.20
2023-03-18T22:19:01.943Z,82.38
2023-03-18T22:21:29.613Z,85.11
2023-03-18T22:23:58.312Z,83.19
2023-03-18T22:26:26.091Z,83.44
2023-03-18T22:28:53.544Z,82.74
2023-03-18T22:31:24.676Z,85.05
2023-03-18T22:33:52.439Z,83.03
2023-03-18T22:36:25.646Z,83.74
2023-03-18T22:38:53.129Z,84.87
2023-03-18T22:41:24.205Z,83.71
2023-03-18T22:43:51.835Z,84.36
2023-03-18T22:46:19.375Z,81.15
2023-03-18T22:48:46.936Z,80.79
2023-03-18T22:51:27.644Z,81.99
2023-03-18T22:53:55.551Z,81.43
2023-03-18T22:56:23.552Z,82.08
2023-03-18T22:58:51.415Z,83.02
2023-03-18T23:01:23.192Z,84.46
2023-03-18T23:03:50.762Z,84.91
2023-03-18T23:06:23.804Z,84.66
2023-03-18T23:08:51.609Z,83.83
2023-03-18T23:11:19.223Z,82.12
2023-03-18T23:13:50.222Z,81.79
2023-03-18T23:16:21.024Z,83.69
2023-03-18T23:18:49.582Z,83.82
2023-03-18T23:21:22.290Z,85.66
2023-03-18T23:23:50.279Z,84.34
2023-03-18T23:26:17.884Z,82.89
2023-03-18T23:28:46.057Z,82.35
2023-03-18T23:31:14.909Z,82.84
2023-03-18T23:33:42.761Z,83.89
2023-03-18T23:36:10.812Z,85.59
2023-03-18T23:38:38.376Z,86.11
2023-03-18T23:41:07.250Z,84.35
2023-03-18T23:43:34.906Z,83.59
2023-03-18T23:46:03.546Z,82.96
2023-03-18T23:48:31.607Z,83.51
2023-03-18T23:50:59.126Z,84.52
2023-03-18T23:53:26.662Z,86.46
2023-03-18T23:55:54.075Z,88.54
2023-03-18T23:58:21.742Z,89.53
